Time;durP1;ratioP1;P1;durP2;ratioP2;P2;SDS_P1;SDS_P2;PMS_P1;PMS_P2;Temp;Humidity;BMP_temperature;BMP_pressure;BME280_temperature;BME280_humidity;BME280_pressure;Samples;Min_cycle;Max_cycle;Signal;HPM_P1;HPM_P2
2022/09/02 00:02:41;;;;;;;3.10;2.42;;;24.80;48.20;;;;;;5998450;29;20472;-85
2022/09/02 00:05:42;;;;;;;4.90;2.47;;;24.70;48.30;;;;;;5993331;29;20038;-85
2022/09/02 00:08:43;;;;;;;2.53;2.03;;;24.70;48.30;;;;;;5982344;29;20050;-85
2022/09/02 00:11:47;;;;;;;3.05;2.20;;;24.60;48.30;;;;;;6014643;29;20066;-85
2022/09/02 00:14:48;;;;;;;3.08;1.98;;;24.70;48.30;;;;;;6014673;29;20533;-85
2022/09/02 00:17:48;;;;;;;3.38;2.30;;;24.60;48.20;;;;;;5999120;29;20046;-84
2022/09/02 00:20:49;;;;;;;5.40;2.25;;;24.60;48.30;;;;;;5979544;29;20053;-84
2022/09/02 00:23:50;;;;;;;4.43;2.92;;;24.50;48.40;;;;;;6000061;29;20182;-85
2022/09/02 00:26:52;;;;;;;6.90;2.60;;;24.50;48.60;;;;;;5995349;29;20481;-84
2022/09/02 00:29:53;;;;;;;4.85;2.38;;;24.40;48.70;;;;;;6013564;29;20054;-84
2022/09/02 00:32:54;;;;;;;5.55;2.53;;;24.40;48.70;;;;;;5995684;29;20069;-84
2022/09/02 00:36:03;;;;;;;2.58;2.13;;;24.40;48.80;;;;;;6011735;29;20552;-85
2022/09/02 00:39:07;;;;;;;2.92;2.30;;;24.30;48.80;;;;;;6013602;29;20472;-84
2022/09/02 00:42:08;;;;;;;6.72;2.50;;;24.30;48.80;;;;;;6012991;29;20076;-84
2022/09/02 00:45:10;;;;;;;4.03;2.50;;;24.30;48.90;;;;;;6015329;29;20042;-85
2022/09/02 00:48:12;;;;;;;4.40;2.58;;;24.30;49.00;;;;;;6012934;29;20392;-84
2022/09/02 00:51:15;;;;;;;3.35;2.30;;;24.30;49.10;;;;;;5997270;29;20030;-86
2022/09/02 00:54:18;;;;;;;7.38;2.60;;;24.30;49.20;;;;;;6013913;29;20441;-85
2022/09/02 00:57:26;;;;;;;3.55;2.20;;;24.30;49.30;;;;;;6013975;29;20050;-85
2022/09/02 01:00:32;;;;;;;4.18;2.50;;;24.40;49.40;;;;;;6012610;29;20046;-84
2022/09/02 01:03:33;;;;;;;11.93;5.82;;;24.30;49.40;;;;;;6012839;29;20058;-85
2022/09/02 01:06:34;;;;;;;17.52;5.72;;;24.40;50.10;;;;;;6013870;29;20578;-84
2022/09/02 01:09:36;;;;;;;12.77;4.20;;;24.40;49.70;;;;;;6015934;29;20058;-85
2022/09/02 01:12:38;;;;;;;5.38;2.97;;;24.40;49.70;;;;;;6018773;29;20495;-86
2022/09/02 01:15:44;;;;;;;6.15;3.25;;;24.40;49.70;;;;;;6012593;29;20075;-85
2022/09/02 01:18:49;;;;;;;5.63;3.65;;;24.40;49.80;;;;;;6012090;29;20065;-85
2022/09/02 01:21:52;;;;;;;4.00;2.40;;;24.30;49.80;;;;;;6012894;29;20105;-85
2022/09/02 01:24:56;;;;;;;2.95;2.08;;;24.30;49.80;;;;;;6015880;29;20046;-84
2022/09/02 01:28:07;;;;;;;5.32;2.38;;;24.30;49.90;;;;;;6014956;29;20541;-85
2022/09/02 01:31:08;;;;;;;2.97;2.50;;;24.30;50.00;;;;;;5996914;29;20042;-84
2022/09/02 01:34:10;;;;;;;4.75;2.70;;;24.30;49.90;;;;;;5996444;29;20479;-85
2022/09/02 01:37:11;;;;;;;5.78;2.55;;;24.30;50.00;;;;;;5996818;29;20105;-85
2022/09/02 01:40:15;;;;;;;4.45;3.10;;;24.30;49.90;;;;;;5996419;29;20153;-84
2022/09/02 01:43:20;;;;;;;4.97;2.50;;;24.30;49.70;;;;;;5978704;29;20038;-85
2022/09/02 01:46:22;;;;;;;3.67;2.33;;;24.30;49.60;;;;;;5981090;29;20041;-83
2022/09/02 01:49:23;;;;;;;4.82;2.67;;;24.30;49.60;;;;;;5979196;29;20088;-84
2022/09/02 01:52:27;;;;;;;3.58;2.28;;;24.30;49.80;;;;;;5996361;29;20045;-83
2022/09/02 01:55:30;;;;;;;6.80;2.30;;;24.30;49.90;;;;;;5987448;29;20175;-85
2022/09/02 01:58:32;;;;;;;5.95;2.40;;;24.20;49.70;;;;;;5995844;29;20052;-85
2022/09/02 02:01:36;;;;;;;2.85;2.17;;;24.10;49.60;;;;;;5996448;29;20072;-84
2022/09/02 02:04:38;;;;;;;5.95;2.53;;;24.10;49.70;;;;;;5994835;29;20057;-84
2022/09/02 02:07:41;;;;;;;10.35;2.67;;;24.00;49.70;;;;;;5996080;29;20052;-85
2022/09/02 02:10:42;;;;;;;15.10;2.33;;;24.00;49.80;;;;;;5995798;29;20097;-84
2022/09/02 02:13:46;;;;;;;5.40;2.75;;;24.00;49.90;;;;;;5977363;29;20053;-85
2022/09/02 02:16:49;;;;;;;3.80;2.40;;;23.90;49.90;;;;;;5995624;29;20034;-84
2022/09/02 02:19:50;;;;;;;3.78;2.47;;;23.90;50.00;;;;;;5981611;29;20050;-84
2022/09/02 02:22:51;;;;;;;5.30;2.90;;;23.90;50.10;;;;;;6012634;29;20056;-85
2022/09/02 02:25:53;;;;;;;5.55;3.53;;;23.80;50.10;;;;;;5989028;29;20110;-84
2022/09/02 02:28:55;;;;;;;5.40;2.70;;;23.80;50.20;;;;;;5997321;29;20042;-84
2022/09/02 02:31:57;;;;;;;6.35;2.80;;;23.70;50.20;;;;;;6011154;29;20114;-85
2022/09/02 02:34:58;;;;;;;3.10;2.20;;;23.80;50.50;;;;;;6016327;29;20069;-84
2022/09/02 02:37:59;;;;;;;4.57;2.38;;;23.70;51.10;;;;;;6016516;29;20106;-85
2022/09/02 02:41:00;;;;;;;3.78;2.85;;;23.70;50.60;;;;;;6014234;29;20082;-84
2022/09/02 02:44:03;;;;;;;7.38;2.70;;;23.70;50.60;;;;;;6010759;29;20038;-85
2022/09/02 02:47:07;;;;;;;7.47;3.00;;;23.70;50.70;;;;;;6011170;29;20041;-86
2022/09/02 02:50:11;;;;;;;7.30;2.83;;;23.70;50.70;;;;;;5995812;29;20034;-85
2022/09/02 02:53:12;;;;;;;4.30;2.75;;;23.70;50.80;;;;;;6005481;29;20061;-85
2022/09/02 02:56:13;;;;;;;5.90;2.65;;;23.70;51.40;;;;;;5995651;29;20069;-84
2022/09/02 02:59:14;;;;;;;7.43;3.42;;;23.60;50.90;;;;;;6018806;29;20532;-85
2022/09/02 03:02:16;;;;;;;11.52;3.05;;;23.60;50.90;;;;;;6020654;29;20128;-85
2022/09/02 03:05:18;;;;;;;4.13;2.30;;;23.60;50.90;;;;;;6016546;29;20049;-85
2022/09/02 03:08:21;;;;;;;8.48;3.08;;;23.60;51.00;;;;;;6014722;29;20050;-84
2022/09/02 03:11:27;;;;;;;8.20;2.67;;;23.60;51.10;;;;;;6013951;29;20045;-85
2022/09/02 03:14:29;;;;;;;3.83;2.65;;;23.60;51.10;;;;;;6020591;29;20068;-84
2022/09/02 03:17:30;;;;;;;3.35;2.53;;;23.60;51.20;;;;;;5999787;29;20472;-84
2022/09/02 03:20:32;;;;;;;6.20;2.83;;;23.60;51.20;;;;;;6015058;29;20133;-85
2022/09/02 03:23:37;;;;;;;4.60;2.75;;;23.60;51.30;;;;;;6014559;29;20490;-85
2022/09/02 03:26:40;;;;;;;5.00;2.97;;;23.60;52.00;;;;;;6027586;29;20046;-84
2022/09/02 03:29:41;;;;;;;6.70;3.08;;;23.50;51.30;;;;;;6013503;29;20044;-84
2022/09/02 03:32:42;;;;;;;7.32;3.03;;;23.50;51.30;;;;;;5985162;29;20045;-84
2022/09/02 03:35:44;;;;;;;6.90;2.63;;;23.50;51.30;;;;;;6014483;29;20041;-85
2022/09/02 03:38:46;;;;;;;12.43;2.33;;;23.50;51.40;;;;;;5983931;29;20038;-84
2022/09/02 03:41:49;;;;;;;3.85;2.60;;;23.50;51.40;;;;;;5984297;29;20041;-84
2022/09/02 03:44:50;;;;;;;10.75;2.92;;;23.60;51.50;;;;;;6009211;29;20442;-84
2022/09/02 03:47:53;;;;;;;5.97;2.78;;;23.50;51.50;;;;;;5999075;29;20042;-84
2022/09/02 03:50:57;;;;;;;4.93;2.80;;;23.50;51.70;;;;;;6000075;29;20045;-84
2022/09/02 03:53:59;;;;;;;4.30;2.63;;;23.50;51.70;;;;;;6017055;29;20110;-85
2022/09/02 03:57:00;;;;;;;4.78;3.00;;;23.40;51.80;;;;;;5991964;29;20065;-84
2022/09/02 04:00:06;;;;;;;5.03;2.83;;;23.40;51.80;;;;;;6005788;29;20468;-85
2022/09/02 04:03:14;;;;;;;7.93;2.78;;;23.40;51.90;;;;;;6009114;29;20093;-84
2022/09/02 04:06:18;;;;;;;5.13;2.88;;;23.40;52.00;;;;;;5996110;29;20038;-84
2022/09/02 04:09:21;;;;;;;6.18;2.50;;;23.40;52.10;;;;;;5989622;29;20042;-85
2022/09/02 04:12:23;;;;;;;4.85;3.58;;;23.40;52.00;;;;;;5997665;29;20037;-84
2022/09/02 04:15:24;;;;;;;4.38;3.10;;;23.30;52.10;;;;;;5997838;29;20376;-85
2022/09/02 04:18:26;;;;;;;6.78;2.92;;;23.30;52.20;;;;;;5984013;29;20098;-83
2022/09/02 04:21:28;;;;;;;6.50;3.53;;;23.30;52.40;;;;;;6013774;29;20093;-84
2022/09/02 04:24:30;;;;;;;6.00;3.58;;;23.30;52.40;;;;;;5982284;29;20461;-84
2022/09/02 04:27:31;;;;;;;15.48;3.17;;;23.20;52.30;;;;;;5989382;29;20057;-84
2022/09/02 04:30:32;;;;;;;9.27;3.08;;;23.20;52.30;;;;;;6012558;29;20034;-84
2022/09/02 04:33:33;;;;;;;9.30;3.47;;;23.20;52.30;;;;;;6034635;29;20030;-84
2022/09/02 04:36:35;;;;;;;4.47;2.85;;;23.10;52.30;;;;;;5999429;29;20045;-84
2022/09/02 04:39:40;;;;;;;5.05;3.30;;;23.10;52.30;;;;;;5999104;29;20089;-84
2022/09/02 04:42:42;;;;;;;7.40;3.03;;;23.10;52.60;;;;;;6017489;29;20034;-84
2022/09/02 04:45:45;;;;;;;6.15;2.92;;;23.00;52.50;;;;;;6017504;29;20037;-84
2022/09/02 04:48:48;;;;;;;8.38;2.88;;;22.90;52.60;;;;;;6020415;29;20060;-84
2022/09/02 04:51:49;;;;;;;5.80;3.22;;;22.80;52.70;;;;;;6020980;29;20054;-84
2022/09/02 04:54:50;;;;;;;10.63;3.38;;;22.80;53.00;;;;;;6004792;29;20066;-84
2022/09/02 04:57:52;;;;;;;5.47;3.40;;;22.80;53.10;;;;;;6021433;29;20158;-84
2022/09/02 05:00:53;;;;;;;7.38;3.08;;;22.70;53.20;;;;;;6021101;29;20045;-85
2022/09/02 05:03:55;;;;;;;4.88;3.15;;;22.70;53.30;;;;;;6019605;29;20120;-84
2022/09/02 05:07:00;;;;;;;4.90;3.20;;;22.70;53.40;;;;;;5987468;29;20030;-84
2022/09/02 05:10:05;;;;;;;7.60;3.47;;;22.60;53.40;;;;;;6003853;29;20037;-85
2022/09/02 05:13:09;;;;;;;7.28;3.70;;;22.60;53.40;;;;;;6019858;29;20038;-84
2022/09/02 05:16:15;;;;;;;8.07;3.35;;;22.60;53.60;;;;;;6017503;29;20038;-83
2022/09/02 05:19:16;;;;;;;15.95;2.80;;;22.60;53.50;;;;;;6018130;29;20425;-85
2022/09/02 05:22:21;;;;;;;4.28;3.13;;;22.60;54.10;;;;;;6016534;29;20042;-84
2022/09/02 05:25:22;;;;;;;16.13;3.60;;;22.60;53.40;;;;;;6019317;29;20098;-84
2022/09/02 05:28:23;;;;;;;5.68;3.20;;;22.70;53.50;;;;;;6002074;29;20189;-85
2022/09/02 05:31:25;;;;;;;5.22;3.35;;;22.70;53.60;;;;;;6016105;29;20089;-85
2022/09/02 05:34:26;;;;;;;7.03;3.47;;;22.60;53.70;;;;;;6018508;29;20042;-85
2022/09/02 05:37:31;;;;;;;12.77;3.90;;;22.60;53.80;;;;;;6006925;29;20038;-85
2022/09/02 05:40:37;;;;;;;4.35;3.30;;;22.60;54.00;;;;;;5997861;29;20038;-84
2022/09/02 05:43:39;;;;;;;6.28;3.45;;;22.60;54.10;;;;;;6015691;29;20136;-85
2022/09/02 05:46:40;;;;;;;5.55;3.60;;;22.60;54.10;;;;;;6022704;29;20138;-85
2022/09/02 05:49:41;;;;;;;7.90;3.03;;;22.60;54.00;;;;;;6009611;29;20053;-86
2022/09/02 05:52:50;;;;;;;5.65;3.38;;;22.60;53.90;;;;;;6005792;29;20037;-85
2022/09/02 05:55:52;;;;;;;7.22;3.70;;;22.60;53.90;;;;;;6026262;29;20053;-86
2022/09/02 05:58:56;;;;;;;7.53;3.30;;;22.60;53.90;;;;;;6022996;29;20038;-83
2022/09/02 06:01:58;;;;;;;14.13;3.50;;;22.60;54.00;;;;;;6009128;29;20046;-85
2022/09/02 06:05:00;;;;;;;6.05;2.92;;;22.60;53.90;;;;;;6022944;29;20042;-85
2022/09/02 06:08:01;;;;;;;8.00;3.38;;;22.70;54.00;;;;;;6024460;29;20416;-86
2022/09/02 06:11:06;;;;;;;5.85;3.38;;;22.70;54.00;;;;;;6015374;29;20038;-85
2022/09/02 06:14:07;;;;;;;10.95;3.40;;;22.70;54.00;;;;;;6018185;29;20071;-85
2022/09/02 06:17:11;;;;;;;9.27;3.42;;;22.80;54.00;;;;;;6018230;29;20042;-86
2022/09/02 06:20:32;;;;;;;7.30;2.70;;;22.80;53.90;;;;;;6019843;29;20045;-86
2022/09/02 06:23:37;;;;;;;8.38;3.45;;;22.90;53.90;;;;;;6008206;29;20030;-85
2022/09/02 06:26:40;;;;;;;6.97;3.42;;;22.90;53.80;;;;;;6010256;29;20046;-85
2022/09/02 06:29:41;;;;;;;12.55;3.88;;;22.90;53.70;;;;;;6009622;29;20445;-85
2022/09/02 06:32:44;;;;;;;6.60;3.35;;;23.00;53.70;;;;;;5988429;29;20057;-84
2022/09/02 06:35:46;;;;;;;7.57;3.90;;;23.10;53.60;;;;;;6003263;29;20048;-84
2022/09/02 06:38:52;;;;;;;11.90;3.60;;;23.20;53.40;;;;;;6008496;29;20094;-85
2022/09/02 06:41:54;;;;;;;8.77;4.03;;;23.20;53.20;;;;;;6036834;29;20128;-85
2022/09/02 06:44:57;;;;;;;7.10;3.90;;;23.30;53.00;;;;;;6019190;29;20117;-85
2022/09/02 06:47:58;;;;;;;5.72;3.10;;;23.40;52.90;;;;;;6017317;29;20052;-86
2022/09/02 06:51:00;;;;;;;11.52;3.60;;;23.40;52.60;;;;;;5985420;29;20524;-85
2022/09/02 06:54:03;;;;;;;6.10;3.92;;;23.50;52.40;;;;;;6002685;29;20045;-86
2022/09/02 06:57:07;;;;;;;7.50;3.60;;;23.60;52.20;;;;;;5995255;29;20528;-86
2022/09/02 07:00:10;;;;;;;6.18;2.67;;;23.70;52.00;;;;;;5985284;29;20109;-85
2022/09/02 07:06:37;;;;;;;6.68;3.03;;;23.90;51.50;;;;;;5997335;29;20049;-86
2022/09/02 07:09:39;;;;;;;6.45;3.25;;;24.00;51.20;;;;;;5978670;29;20050;-86
2022/09/02 07:12:51;;;;;;;6.57;3.08;;;24.00;50.90;;;;;;6002037;29;20050;-84
2022/09/02 07:15:52;;;;;;;6.47;2.88;;;24.10;50.70;;;;;;5997146;29;20042;-85
2022/09/02 07:18:55;;;;;;;5.20;3.03;;;24.10;50.50;;;;;;6015818;29;20038;-86
2022/09/02 07:21:56;;;;;;;12.45;2.92;;;24.20;50.30;;;;;;5997913;29;20038;-86
2022/09/02 07:25:18;;;;;;;8.65;3.10;;;24.20;50.20;;;;;;5958055;29;20046;-86
2022/09/02 07:28:21;;;;;;;7.78;2.83;;;24.20;50.00;;;;;;5977444;29;20065;-86
2022/09/02 07:31:23;;;;;;;6.45;3.15;;;24.30;49.90;;;;;;5988297;29;20043;-85
2022/09/02 07:34:24;;;;;;;9.38;4.10;;;24.40;49.70;;;;;;5988893;29;20341;-85
2022/09/02 07:37:26;;;;;;;11.43;2.78;;;24.50;49.50;;;;;;5987872;29;20034;-86
2022/09/02 07:40:28;;;;;;;5.82;2.90;;;24.70;49.20;;;;;;5988636;29;20520;-86
2022/09/02 07:43:32;;;;;;;5.75;2.85;;;24.90;48.80;;;;;;5976823;29;20050;-85
2022/09/02 07:46:34;;;;;;;4.47;2.83;;;25.00;48.40;;;;;;5987753;29;20098;-87
2022/09/02 07:49:36;;;;;;;8.70;3.25;;;25.10;48.30;;;;;;5986315;29;20376;-85
2022/09/02 07:52:37;;;;;;;6.80;2.88;;;25.30;48.10;;;;;;5972756;29;20042;-84
2022/09/02 07:55:39;;;;;;;4.22;2.50;;;25.40;47.80;;;;;;5997570;29;20082;-85
2022/09/02 07:58:44;;;;;;;8.20;2.90;;;25.50;47.30;;;;;;6020139;29;20050;-86
2022/09/02 08:01:47;;;;;;;10.38;2.90;;;25.60;46.80;;;;;;6023043;29;20425;-85
2022/09/02 08:04:50;;;;;;;4.55;2.97;;;25.70;46.70;;;;;;6025706;29;20049;-85
2022/09/02 08:07:51;;;;;;;8.90;3.17;;;25.70;46.40;;;;;;6046800;29;20053;-84
2022/09/02 08:10:53;;;;;;;6.80;2.92;;;25.80;46.30;;;;;;6024782;29;20042;-87
2022/09/02 08:13:56;;;;;;;8.23;2.60;;;25.90;46.20;;;;;;6015327;29;20042;-86
2022/09/02 08:17:02;;;;;;;4.93;3.10;;;26.00;46.00;;;;;;6015918;29;20069;-86
2022/09/02 08:20:03;;;;;;;4.72;2.85;;;26.30;45.70;;;;;;6022839;29;20066;-85
2022/09/02 08:23:05;;;;;;;4.15;3.03;;;26.40;45.40;;;;;;6013213;29;20122;-86
2022/09/02 08:26:06;;;;;;;4.00;2.40;;;26.60;44.70;;;;;;6013883;29;20069;-86
2022/09/02 08:29:08;;;;;;;3.83;2.50;;;26.80;44.40;;;;;;5983710;29;20046;-86
2022/09/02 08:32:09;;;;;;;2.75;2.38;;;26.90;44.30;;;;;;6012510;29;20069;-86
2022/09/02 08:35:10;;;;;;;3.15;2.58;;;27.00;43.80;;;;;;6002182;29;20057;-86
2022/09/02 08:38:11;;;;;;;8.15;3.80;;;27.10;43.70;;;;;;6014943;29;20389;-87
2022/09/02 08:41:22;;;;;;;10.55;4.55;;;27.20;43.60;;;;;;5999095;29;20048;-86
2022/09/02 08:44:24;;;;;;;11.30;4.55;;;27.30;43.50;;;;;;6012402;29;20066;-85
2022/09/02 08:47:29;;;;;;;9.75;3.33;;;27.40;43.30;;;;;;5999797;29;20087;-86
2022/09/02 08:50:31;;;;;;;5.30;2.83;;;27.50;42.70;;;;;;5999833;29;20395;-86
2022/09/02 08:53:45;;;;;;;3.97;2.78;;;27.50;42.70;;;;;;5996838;29;20044;-86
2022/09/02 08:56:50;;;;;;;10.57;2.80;;;27.60;42.50;;;;;;5984247;29;20422;-87
2022/09/02 08:59:52;;;;;;;7.78;3.80;;;27.70;42.50;;;;;;5980140;29;20354;-86
2022/09/02 09:03:07;;;;;;;5.90;2.78;;;27.80;42.20;;;;;;5991160;29;20438;-87
2022/09/02 09:06:22;;;;;;;6.40;3.25;;;27.80;41.90;;;;;;5993032;29;20129;-85
2022/09/02 09:09:51;;;;;;;8.88;3.28;;;28.00;41.70;;;;;;5999136;29;20848;-85
2022/09/02 09:13:13;;;;;;;6.82;2.85;;;28.00;41.20;;;;;;5986959;29;20038;-86
2022/09/02 09:16:40;;;;;;;5.53;3.20;;;28.10;41.20;;;;;;5983644;29;20057;-87
2022/09/02 09:19:44;;;;;;;9.88;5.53;;;28.30;41.30;;;;;;5987391;29;20056;-86
2022/09/02 09:22:48;;;;;;;8.75;5.10;;;28.50;40.90;;;;;;5992296;29;20034;-86
2022/09/02 09:25:54;;;;;;;5.78;3.50;;;28.60;40.60;;;;;;6006908;29;20102;-85
2022/09/02 09:28:58;;;;;;;7.10;2.70;;;28.70;40.20;;;;;;6007474;29;20152;-86
2022/09/02 09:31:59;;;;;;;17.65;6.18;;;28.90;40.10;;;;;;5993064;29;20066;-87
2022/09/02 09:35:03;;;;;;;12.40;6.25;;;29.00;40.00;;;;;;5997346;29;20123;-85
2022/09/02 09:38:12;;;;;;;8.77;4.70;;;29.00;39.80;;;;;;6012106;29;20495;-84
2022/09/02 09:41:17;;;;;;;5.22;3.13;;;28.90;40.30;;;;;;6010890;29;20361;-85
2022/09/02 09:44:43;;;;;;;8.70;3.17;;;28.90;39.70;;;;;;6008403;29;20046;-86
2022/09/02 09:47:44;;;;;;;3.28;2.47;;;28.70;39.30;;;;;;5974903;29;20362;-86
2022/09/02 09:51:09;;;;;;;7.72;2.85;;;28.70;39.30;;;;;;5978829;29;20038;-86
2022/09/02 09:54:15;;;;;;;4.50;2.25;;;28.60;39.40;;;;;;5857785;30;20399;-86
2022/09/02 09:57:20;;;;;;;6.28;2.50;;;28.60;39.20;;;;;;5872456;30;20101;-85
2022/09/02 10:00:30;;;;;;;5.70;2.70;;;28.60;39.10;;;;;;5897936;30;20040;-85
2022/09/02 10:03:40;;;;;;;4.57;2.22;;;28.50;39.20;;;;;;5886338;29;20163;-86
2022/09/02 10:06:43;;;;;;;6.10;3.20;;;28.50;39.10;;;;;;5881303;30;20029;-86
2022/09/02 10:09:44;;;;;;;8.63;2.80;;;28.40;39.00;;;;;;5897984;30;20044;-86
2022/09/02 10:12:46;;;;;;;3.63;2.97;;;28.30;38.90;;;;;;5897504;30;20047;-85
2022/09/02 10:16:06;;;;;;;4.82;2.90;;;28.30;39.00;;;;;;5900045;30;20074;-86
2022/09/02 10:19:33;;;;;;;6.57;2.63;;;28.30;39.00;;;;;;5897130;30;20392;-86
2022/09/02 10:22:55;;;;;;;5.18;2.63;;;28.20;38.90;;;;;;5888410;30;20518;-87
2022/09/02 10:26:10;;;;;;;3.50;2.42;;;28.20;38.90;;;;;;5878991;30;20117;-87
2022/09/02 10:29:35;;;;;;;4.72;2.70;;;28.30;38.70;;;;;;5917627;30;20051;-85
2022/09/02 10:33:05;;;;;;;8.02;3.17;;;28.40;38.70;;;;;;5999327;29;20042;-86
2022/09/02 10:36:19;;;;;;;7.97;2.72;;;28.60;38.60;;;;;;6005307;29;20075;-85
2022/09/02 10:39:50;;;;;;;3.97;2.53;;;28.80;38.30;;;;;;6014063;29;20372;-85
2022/09/02 10:43:03;;;;;;;3.60;2.72;;;29.00;37.90;;;;;;6010255;29;20053;-86
2022/09/02 10:46:08;;;;;;;8.45;2.83;;;29.30;37.60;;;;;;6008138;29;20120;-85
2022/09/02 10:49:17;;;;;;;3.20;2.30;;;29.50;37.40;;;;;;5979266;29;20479;-87
2022/09/02 10:52:56;;;;;;;4.15;3.13;;;29.60;37.00;;;;;;5993488;29;20329;-85
2022/09/02 10:56:09;;;;;;;4.00;2.80;;;29.60;36.90;;;;;;5960174;29;20106;-86
2022/09/02 10:59:28;;;;;;;5.57;2.60;;;29.60;37.00;;;;;;5942317;29;21118;-85
2022/09/02 11:02:34;;;;;;;7.68;3.20;;;29.60;37.20;;;;;;5961376;29;20456;-86
2022/09/02 11:05:51;;;;;;;5.53;2.80;;;30.00;36.90;;;;;;5960787;29;20057;-86
2022/09/02 11:08:58;;;;;;;3.33;2.70;;;30.40;36.50;;;;;;5978369;29;20039;-86
2022/09/02 11:12:34;;;;;;;11.25;2.88;;;31.00;36.00;;;;;;5968865;29;20047;-86
2022/09/02 11:16:01;;;;;;;6.68;2.70;;;31.40;35.40;;;;;;5960114;29;20050;-86
2022/09/02 11:19:18;;;;;;;12.55;3.05;;;31.70;36.40;;;;;;5962938;29;20066;-85
2022/09/02 11:22:56;;;;;;;14.05;4.28;;;31.60;38.10;;;;;;5987187;29;20248;-84
2022/09/02 11:26:10;;;;;;;10.77;4.00;;;31.30;39.10;;;;;;5975884;29;20054;-85
2022/09/02 11:29:25;;;;;;;7.78;3.67;;;31.10;40.40;;;;;;5969975;29;20448;-85
2022/09/02 11:32:40;;;;;;;16.33;3.15;;;30.80;41.20;;;;;;6016835;29;20473;-86
2022/09/02 11:35:41;;;;;;;11.02;3.20;;;30.50;41.30;;;;;;5994405;29;20502;-86
2022/09/02 11:39:04;;;;;;;5.55;2.45;;;30.20;41.70;;;;;;6015182;29;20476;-85
2022/09/02 11:51:00;;;;;;;20.90;12.80;;;29.60;42.10;;;;;;6020513;29;20050;-86
2022/09/02 11:54:02;;;;;;;11.73;3.55;;;29.40;41.70;;;;;;6016652;29;20429;-86
2022/09/02 11:57:05;;;;;;;3.63;2.38;;;29.40;40.70;;;;;;6016256;29;20045;-86
2022/09/02 12:00:11;;;;;;;5.25;2.50;;;29.30;40.30;;;;;;6015177;29;20049;-86
2022/09/02 12:03:19;;;;;;;4.65;2.70;;;29.30;40.30;;;;;;6014184;29;20380;-86
2022/09/02 12:06:21;;;;;;;5.78;2.95;;;29.30;40.60;;;;;;6019610;29;20054;-87
2022/09/02 12:09:42;;;;;;;16.77;3.30;;;29.30;41.00;;;;;;6021258;29;20046;-85
2022/09/02 12:12:45;;;;;;;9.35;2.83;;;29.00;41.70;;;;;;6018348;29;20433;-84
2022/09/02 12:15:47;;;;;;;7.43;3.15;;;28.50;43.10;;;;;;6013773;29;20098;-85
2022/09/02 12:18:54;;;;;;;10.48;4.25;;;28.00;44.60;;;;;;6015824;29;20038;-85
2022/09/02 12:22:17;;;;;;;11.30;4.35;;;27.90;46.60;;;;;;6015239;29;20042;-84
2022/09/02 12:25:24;;;;;;;8.40;2.78;;;27.70;47.40;;;;;;5988425;29;20075;-85
2022/09/02 12:28:29;;;;;;;8.10;2.90;;;27.90;47.40;;;;;;6016142;29;20129;-85
2022/09/02 12:31:41;;;;;;;6.15;3.35;;;28.00;47.20;;;;;;5999155;29;20038;-86
2022/09/02 12:34:45;;;;;;;13.93;2.85;;;28.30;46.80;;;;;;5999994;29;20042;-85
2022/09/02 12:38:16;;;;;;;4.82;2.95;;;28.70;46.10;;;;;;6002953;29;20030;-86
2022/09/02 12:41:27;;;;;;;5.65;2.88;;;29.20;45.20;;;;;;5903068;30;20039;-84
2022/09/02 12:44:44;;;;;;;5.85;2.88;;;29.40;44.50;;;;;;5905568;30;20050;-84
2022/09/02 12:48:17;;;;;;;5.60;2.78;;;29.30;44.30;;;;;;5920711;30;20059;-85
2022/09/02 12:51:55;;;;;;;5.57;2.63;;;29.20;44.30;;;;;;5874758;30;20123;-85
2022/09/02 12:54:56;;;;;;;4.25;2.63;;;29.00;44.90;;;;;;5906781;30;20449;-85
2022/09/02 12:58:08;;;;;;;6.65;2.90;;;29.00;45.40;;;;;;5924962;30;20055;-86
2022/09/02 13:01:24;;;;;;;6.10;3.05;;;28.90;45.50;;;;;;5911827;30;20378;-85
2022/09/02 13:04:41;;;;;;;5.75;3.08;;;29.10;45.20;;;;;;5905377;30;20035;-86
2022/09/02 13:08:19;;;;;;;6.60;2.60;;;29.10;44.80;;;;;;5918160;30;20382;-85
2022/09/02 13:11:57;;;;;;;5.32;2.90;;;29.20;44.70;;;;;;5904456;30;20054;-85
2022/09/02 13:15:29;;;;;;;3.88;2.60;;;29.20;44.20;;;;;;5912078;30;20446;-85
2022/09/02 13:19:11;;;;;;;7.68;2.83;;;29.30;43.60;;;;;;5955492;29;20022;-85
2022/09/02 13:22:18;;;;;;;6.97;3.15;;;29.40;43.60;;;;;;5990869;29;20034;-85
2022/09/02 13:25:56;;;;;;;11.05;4.82;;;29.50;43.90;;;;;;6008757;29;20438;-85
2022/09/02 13:29:06;;;;;;;6.93;3.47;;;29.50;44.20;;;;;;5982918;29;20412;-85
2022/09/02 13:32:24;;;;;;;4.32;2.95;;;29.50;44.30;;;;;;5983804;29;20080;-86
2022/09/02 13:35:27;;;;;;;7.00;3.05;;;29.70;44.40;;;;;;5986323;29;20027;-85
2022/09/02 13:38:29;;;;;;;4.30;2.40;;;29.80;44.10;;;;;;5983808;29;20034;-86
2022/09/02 13:41:31;;;;;;;3.05;2.60;;;29.90;43.90;;;;;;5984708;29;20038;-85
2022/09/02 13:44:33;;;;;;;7.85;2.60;;;29.90;43.80;;;;;;5973021;29;20034;-86
2022/09/02 13:47:36;;;;;;;7.38;2.20;;;30.00;43.20;;;;;;5985579;29;20098;-85
2022/09/02 13:50:42;;;;;;;4.85;2.40;;;31.10;41.10;;;;;;5990059;29;20046;-85
2022/09/02 13:53:48;;;;;;;4.90;2.30;;;32.50;38.60;;;;;;5979088;29;20053;-87
2022/09/02 13:56:48;;;;;;;5.30;2.45;;;33.80;36.50;;;;;;5993614;29;20126;-86
2022/09/02 13:59:52;;;;;;;6.63;2.58;;;34.40;34.80;;;;;;5970569;29;20054;-85
2022/09/02 14:03:00;;;;;;;7.30;2.40;;;34.50;34.60;;;;;;5987129;29;20047;-86
2022/09/02 14:06:02;;;;;;;5.07;3.40;;;34.50;34.90;;;;;;5968437;29;20053;-84
2022/09/02 14:09:07;;;;;;;7.22;3.45;;;34.40;35.10;;;;;;5955959;29;20473;-85
2022/09/02 14:12:09;;;;;;;5.63;2.47;;;34.20;35.00;;;;;;5970878;29;20038;-85
2022/09/02 14:15:13;;;;;;;8.23;2.55;;;33.90;34.80;;;;;;5977313;29;20034;-83
2022/09/02 14:18:20;;;;;;;4.18;2.33;;;33.50;35.00;;;;;;5943240;29;20042;-85
2022/09/02 14:21:21;;;;;;;;;;;33.00;34.70;;;;;;5966811;29;20113;-85
2022/09/02 14:24:28;;;;;;;3.78;2.28;;;32.60;35.20;;;;;;5960235;29;20114;-85
2022/09/02 14:27:29;;;;;;;6.40;2.50;;;32.20;35.30;;;;;;5999762;29;20139;-86
2022/09/02 14:30:36;;;;;;;4.05;2.42;;;31.90;35.40;;;;;;6009903;29;20045;-85
2022/09/02 14:33:43;;;;;;;3.83;2.30;;;31.50;35.80;;;;;;6005199;29;20406;-84
2022/09/02 14:36:44;;;;;;;4.55;2.60;;;31.20;36.30;;;;;;5994981;29;20140;-85
2022/09/02 14:40:09;;;;;;;5.05;2.95;;;31.10;36.50;;;;;;5998681;29;20046;-84
2022/09/02 14:43:15;;;;;;;3.50;2.28;;;31.00;36.80;;;;;;6002386;29;20046;-86
2022/09/02 14:46:25;;;;;;;6.80;4.22;;;31.00;37.00;;;;;;5986997;29;20046;-85
2022/09/02 14:49:29;;;;;;;8.18;3.03;;;31.00;37.00;;;;;;6012077;29;20491;-85
2022/09/02 14:52:35;;;;;;;4.38;2.15;;;31.00;37.20;;;;;;5979370;29;20048;-86
2022/09/02 14:55:54;;;;;;;16.92;2.78;;;31.00;37.50;;;;;;5983658;29;20066;-85
2022/09/02 14:58:55;;;;;;;4.57;2.58;;;30.90;37.70;;;;;;6015219;29;20046;-85
2022/09/02 15:01:58;;;;;;;2.95;2.08;;;30.80;37.90;;;;;;6000208;29;20043;-86
2022/09/02 15:05:07;;;;;;;6.38;2.50;;;30.70;38.00;;;;;;6017587;29;20038;-85
2022/09/02 15:08:09;;;;;;;2.72;2.30;;;30.70;38.10;;;;;;6017992;29;20121;-86
2022/09/02 15:11:13;;;;;;;3.88;2.70;;;30.70;38.10;;;;;;5990860;29;20038;-85
2022/09/02 15:14:14;;;;;;;4.32;3.03;;;30.80;38.10;;;;;;5976486;29;20038;-85
2022/09/02 15:17:16;;;;;;;6.80;2.75;;;30.90;37.90;;;;;;5987977;29;20460;-85
2022/09/02 15:20:16;;;;;;;3.35;2.50;;;31.10;37.80;;;;;;6012932;29;20078;-85
2022/09/02 15:23:18;;;;;;;4.70;3.05;;;31.20;37.60;;;;;;6001816;29;20086;-85
2022/09/02 15:26:19;;;;;;;3.67;2.25;;;31.20;37.70;;;;;;6002526;29;20030;-84
2022/09/02 15:29:21;;;;;;;9.73;4.85;;;31.10;37.70;;;;;;5974281;29;20049;-87
2022/09/02 15:32:25;;;;;;;4.82;2.75;;;31.10;37.70;;;;;;6021462;29;20098;-85
2022/09/02 15:35:26;;;;;;;12.63;7.50;;;31.00;37.50;;;;;;6002770;29;20092;-85
2022/09/02 15:38:27;;;;;;;4.55;2.72;;;31.00;37.50;;;;;;6016294;29;20871;-85
2022/09/02 15:41:30;;;;;;;2.75;2.40;;;31.00;37.60;;;;;;6013408;29;20058;-84
2022/09/02 15:44:31;;;;;;;18.13;5.00;;;30.90;37.40;;;;;;6019599;29;20033;-84
2022/09/02 15:47:34;;;;;;;4.03;2.50;;;30.90;38.20;;;;;;6039687;29;20026;-86
2022/09/02 15:50:35;;;;;;;5.10;3.00;;;30.80;37.50;;;;;;6007694;29;20048;-84
2022/09/02 15:53:39;;;;;;;5.53;2.97;;;30.80;37.50;;;;;;6019602;29;20075;-84
2022/09/02 15:56:43;;;;;;;3.58;2.35;;;30.90;37.70;;;;;;6006314;29;20045;-84
2022/09/02 15:59:44;;;;;;;4.97;3.30;;;30.90;37.50;;;;;;6007922;29;20042;-85
2022/09/02 16:02:46;;;;;;;6.20;2.55;;;31.00;37.30;;;;;;6001944;29;20483;-85
2022/09/02 16:05:47;;;;;;;4.45;2.42;;;31.50;36.70;;;;;;6003847;29;20126;-85
2022/09/02 16:08:48;;;;;;;5.53;3.42;;;32.00;36.00;;;;;;6008648;29;20046;-84
2022/09/02 16:11:52;;;;;;;4.03;3.22;;;32.00;36.10;;;;;;5998725;29;20484;-85
2022/09/02 16:14:53;;;;;;;13.40;6.75;;;31.90;36.10;;;;;;5982543;29;20034;-86
2022/09/02 16:17:54;;;;;;;18.85;7.80;;;31.90;36.30;;;;;;5983343;29;20042;-85
2022/09/02 16:20:55;;;;;;;10.35;6.13;;;31.70;36.40;;;;;;5981859;29;20053;-85